Time;durP1;ratioP1;P1;durP2;ratioP2;P2;SDS_P1;SDS_P2;PMS_P1;PMS_P2;Temp;Humidity;BMP_temperature;BMP_pressure;BME280_temperature;BME280_humidity;BME280_pressure;Samples;Min_cycle;Max_cycle;Signal;HPM_P1;HPM_P2
2022/08/09 00:00:18;;;;;;;;;;;;;;;13.30;100.00;102715.56;2032770;29;22677;-73
2022/08/09 00:01:19;;;;;;;4.57;1.80;;;;;;;13.28;100.00;102720.94;2031944;29;39474;-72
2022/08/09 00:02:21;;;;;;;3.25;1.55;;;;;;;13.26;100.00;102711.06;2032582;29;22804;-72
2022/08/09 00:03:23;;;;;;;4.65;1.55;;;;;;;13.24;100.00;102719.16;2031942;29;25612;-72
2022/08/09 00:04:45;;;;;;;3.95;1.92;;;;;;;13.20;100.00;102721.88;2039894;29;20051;-71
2022/08/09 00:06:01;;;;;;;3.75;1.60;;;;;;;13.15;100.00;102727.28;2035560;29;33860;-72
2022/08/09 00:07:12;;;;;;;3.47;1.70;;;;;;;13.13;100.00;102721.00;2032114;29;26818;-72
2022/08/09 00:08:14;;;;;;;3.83;1.52;;;;;;;13.12;100.00;102727.31;2032504;29;30836;-72
2022/08/09 00:09:33;;;;;;;2.45;1.85;;;;;;;13.12;100.00;102719.25;2031668;28;25178;-72
2022/08/09 00:10:35;;;;;;;2.63;1.60;;;;;;;13.10;100.00;102724.63;2039217;29;30032;-72
2022/08/09 00:11:38;;;;;;;3.22;1.67;;;;;;;13.07;100.00;102715.69;2039270;28;20861;-72
2022/08/09 00:12:59;;;;;;;2.92;1.80;;;;;;;13.04;100.00;102721.06;2032236;29;30635;-72
2022/08/09 00:14:02;;;;;;;3.35;1.70;;;;;;;13.02;100.00;102723.75;2032300;29;32426;-72
2022/08/09 00:15:04;;;;;;;3.80;1.80;;;;;;;13.02;100.00;102720.19;2031752;29;28777;-73
2022/08/09 00:16:07;;;;;;;3.65;1.60;;;;;;;13.04;100.00;102715.69;2039294;29;28377;-73
2022/08/09 00:17:09;;;;;;;3.90;1.83;;;;;;;13.03;100.00;102720.19;2038474;29;33693;-72
2022/08/09 00:18:33;;;;;;;3.55;1.92;;;;;;;13.03;100.00;102721.94;2040754;29;20036;-74
2022/08/09 00:19:35;;;;;;;3.33;1.98;;;;;;;13.01;100.00;102727.38;2047458;28;21018;-72
2022/08/09 00:20:38;;;;;;;4.40;2.08;;;;;;;12.99;100.00;102713.00;2046665;28;31115;-72
2022/08/09 00:21:41;;;;;;;3.25;1.60;;;;;;;12.99;100.00;102724.69;2031561;29;32293;-72
2022/08/09 00:22:44;;;;;;;3.30;1.40;;;;;;;12.95;100.00;102717.50;2032040;29;28712;-73
2022/08/09 00:23:48;;;;;;;3.40;1.88;;;;;;;12.90;100.00;102722.03;2031902;29;20044;-72
2022/08/09 00:24:59;;;;;;;5.65;2.00;;;;;;;12.85;100.00;102721.16;2048080;28;20114;-73
2022/08/09 00:26:00;;;;;;;4.35;2.63;;;;;;;12.83;100.00;102724.72;2044492;28;28806;-73
2022/08/09 00:27:05;;;;;;;5.22;1.98;;;;;;;12.79;100.00;102721.16;2031752;29;22923;-72
2022/08/09 00:28:08;;;;;;;3.20;1.80;;;;;;;12.76;100.00;102723.88;2039790;28;20052;-73
2022/08/09 00:29:10;;;;;;;4.13;1.83;;;;;;;12.74;100.00;102718.50;2047505;28;28894;-72
2022/08/09 00:30:13;;;;;;;4.60;1.90;;;;;;;12.72;100.00;102722.06;2031945;29;21124;-72
2022/08/09 00:31:28;;;;;;;4.95;2.10;;;;;;;12.69;100.00;102720.31;2032625;29;20040;-72
2022/08/09 00:32:31;;;;;;;3.67;1.90;;;;;;;12.68;100.00;102718.50;2047165;28;24018;-72
2022/08/09 00:33:34;;;;;;;4.28;2.08;;;;;;;12.65;100.00;102713.16;2046624;28;23791;-74
2022/08/09 00:34:49;;;;;;;3.08;1.95;;;;;;;12.63;100.00;102708.66;2032266;29;26486;-72
2022/08/09 00:35:55;;;;;;;6.95;2.08;;;;;;;12.60;100.00;102705.09;2039279;28;21694;-72
2022/08/09 00:36:57;;;;;;;5.03;2.22;;;;;;;12.58;100.00;102720.34;2039035;29;30741;-73
2022/08/09 00:37:59;;;;;;;4.57;2.05;;;;;;;12.55;100.00;102717.66;2039107;29;25010;-73
2022/08/09 00:39:03;;;;;;;4.45;1.73;;;;;;;12.54;100.00;102707.81;2039531;29;23077;-74
2022/08/09 00:40:09;;;;;;;3.88;2.08;;;;;;;12.53;100.00;102711.38;2038857;29;32768;-73
2022/08/09 00:41:17;;;;;;;4.13;1.88;;;;;;;12.54;100.00;102712.28;2038883;29;20082;-74
2022/08/09 00:42:42;;;;;;;4.43;2.40;;;;;;;12.53;100.00;102714.06;2032581;29;20037;-73
2022/08/09 00:44:04;;;;;;;4.35;2.42;;;;;;;12.53;100.00;102707.81;2032573;29;20075;-73
2022/08/09 00:45:15;;;;;;;3.67;2.15;;;;;;;12.55;100.00;102711.38;2039588;29;20096;-72
2022/08/09 00:46:18;;;;;;;3.17;2.13;;;;;;;12.55;100.00;102722.13;2038275;29;20028;-73
2022/08/09 00:47:30;;;;;;;4.15;2.22;;;;;;;12.51;100.00;102713.19;2032272;29;30195;-73
2022/08/09 00:48:36;;;;;;;6.15;2.42;;;;;;;12.47;100.00;102708.72;2031221;29;39564;-71
2022/08/09 00:49:38;;;;;;;4.28;2.53;;;;;;;12.45;100.00;102717.66;2039453;29;20090;-72
2022/08/09 00:50:41;;;;;;;3.03;2.00;;;;;;;12.41;100.00;102711.41;2037980;29;40183;-72
2022/08/09 00:51:43;;;;;;;3.72;2.30;;;;;;;12.40;100.00;102707.84;2031885;29;29337;-72
2022/08/09 00:52:56;;;;;;;4.20;2.50;;;;;;;12.41;100.00;102717.66;2031682;29;31929;-72
2022/08/09 00:53:57;;;;;;;6.65;2.40;;;;;;;12.40;100.00;102707.84;2032155;29;30647;-73
2022/08/09 00:55:00;;;;;;;3.83;2.80;;;;;;;12.40;100.00;102712.31;2032328;29;20505;-72
2022/08/09 00:56:06;;;;;;;3.92;2.15;;;;;;;12.38;100.00;102709.63;2032099;29;27475;-72
2022/08/09 00:57:10;;;;;;;4.80;2.55;;;;;;;12.36;100.00;102706.06;2032061;29;23039;-73
2022/08/09 00:58:12;;;;;;;4.32;2.13;;;;;;;12.34;100.00;102713.22;2031815;29;31623;-73
2022/08/09 00:59:15;;;;;;;5.78;2.03;;;;;;;12.31;100.00;102715.00;2038910;29;30371;-72
2022/08/09 01:00:21;;;;;;;6.40;2.00;;;;;;;12.27;100.00;102713.22;2047170;28;20056;-72
2022/08/09 01:01:33;;;;;;;6.63;2.15;;;;;;;12.25;100.00;102709.66;2046469;28;25879;-72
2022/08/09 01:03:02;;;;;;;4.50;2.47;;;;;;;12.24;100.00;102711.47;2039054;29;31175;-72
2022/08/09 01:04:24;;;;;;;6.15;2.50;;;;;;;12.24;100.00;102711.47;2032326;28;20049;-75
2022/08/09 01:05:58;;;;;;;3.97;1.95;;;;;;;12.25;100.00;102717.72;2041369;28;38356;-74
2022/08/09 01:07:26;;;;;;;4.13;2.45;;;;;;;12.21;100.00;102708.75;2035826;28;26372;-73
2022/08/09 01:09:04;;;;;;;4.38;2.53;;;;;;;12.23;100.00;102710.53;2039005;29;29879;-72
2022/08/09 01:10:30;;;;;;;5.03;2.53;;;;;;;12.16;100.00;102708.75;2033538;29;20041;-72
2022/08/09 01:11:58;;;;;;;3.92;2.50;;;;;;;12.15;100.00;102709.66;2032132;29;20040;-73
2022/08/09 01:13:12;;;;;;;7.63;2.35;;;;;;;12.13;100.00;102707.88;2047046;28;35612;-72
2022/08/09 01:14:47;;;;;;;7.20;2.47;;;;;;;12.09;100.00;102706.09;2043412;28;33496;-72
2022/08/09 01:15:53;;;;;;;6.00;2.45;;;;;;;12.07;100.00;102714.13;2030353;29;23857;-72
2022/08/09 01:17:15;;;;;;;5.53;2.40;;;;;;;12.07;100.00;102708.78;2039167;29;33323;-73
2022/08/09 01:18:26;;;;;;;3.35;2.30;;;;;;;12.09;100.00;102715.03;2038872;29;26255;-73
2022/08/09 01:19:45;;;;;;;3.83;2.22;;;;;;;12.06;100.00;102717.75;2047027;28;26884;-72
2022/08/09 01:21:41;;;;;;;5.75;2.20;;;;;;;12.03;100.00;102715.03;2040180;28;27584;-72
2022/08/09 01:23:32;;;;;;;6.35;2.42;;;;;;;11.99;100.00;102706.09;2031731;29;37484;-73
2022/08/09 01:25:29;;;;;;;3.95;2.53;;;;;;;11.96;100.00;102716.81;2032022;29;20071;-73
2022/08/09 01:26:54;;;;;;;3.72;2.40;;;;;;;11.92;100.00;102708.78;2032121;29;20033;-72
2022/08/09 01:27:58;;;;;;;4.10;2.13;;;;;;;11.87;100.00;102710.53;2031863;29;22583;-73
2022/08/09 01:29:03;;;;;;;3.83;1.65;;;;;;;11.84;100.00;102706.97;2039112;29;25868;-73
2022/08/09 01:30:08;;;;;;;6.07;2.20;;;;;;;11.82;100.00;102708.72;2038809;29;23484;-73
2022/08/09 01:31:30;;;;;;;4.07;2.60;;;;;;;11.88;100.00;102715.00;2047087;28;24222;-72
2022/08/09 01:32:55;;;;;;;3.90;2.75;;;;;;;11.83;100.00;102715.91;2036417;28;20044;-72
2022/08/09 01:34:01;;;;;;;4.97;2.65;;;;;;;11.84;100.00;102717.69;2031636;29;26097;-73
2022/08/09 01:35:33;;;;;;;6.55;3.00;;;;;;;11.90;100.00;102713.22;2038639;29;33552;-72
2022/08/09 01:36:40;;;;;;;5.93;2.45;;;;;;;11.86;100.00;102717.69;2038031;29;27974;-73
2022/08/09 01:37:46;;;;;;;6.07;2.58;;;;;;;11.83;100.00;102726.63;2048105;28;20040;-73
2022/08/09 01:39:08;;;;;;;4.82;3.15;;;;;;;11.80;100.00;102721.25;2043896;28;20056;-71
2022/08/09 01:40:17;;;;;;;6.25;2.40;;;;;;;11.79;100.00;102716.81;2047082;28;20949;-73
2022/08/09 01:41:34;;;;;;;2.72;2.30;;;;;;;11.78;100.00;102724.84;2045075;28;23452;-73
2022/08/09 01:42:38;;;;;;;4.18;2.28;;;;;;;11.75;100.00;102716.78;2046541;28;27851;-73
2022/08/09 01:43:48;;;;;;;3.75;2.58;;;;;;;11.73;100.00;102722.16;2044883;28;31247;-73
2022/08/09 01:44:54;;;;;;;4.35;2.22;;;;;;;11.68;100.00;102720.34;2038928;29;24298;-72
2022/08/09 01:45:56;;;;;;;4.15;2.30;;;;;;;11.64;100.00;102722.16;2039118;29;20111;-73
2022/08/09 01:47:02;;;;;;;3.20;2.28;;;;;;;11.62;100.00;102724.81;2037968;28;20052;-74
2022/08/09 01:48:05;;;;;;;2.55;2.35;;;;;;;11.60;100.00;102720.34;2032409;29;22660;-74
2022/08/09 01:49:16;;;;;;;6.13;3.00;;;;;;;11.63;100.00;102728.41;2038571;29;31265;-73
2022/08/09 01:50:22;;;;;;;4.53;2.90;;;;;;;11.60;100.00;102721.25;2039594;29;20060;-74
2022/08/09 01:51:31;;;;;;;5.32;3.15;;;;;;;11.66;100.00;102725.72;2046660;28;28690;-73
2022/08/09 01:52:35;;;;;;;4.82;3.38;;;;;;;11.61;100.00;102731.09;2045494;28;25405;-73
2022/08/09 01:53:39;;;;;;;4.10;2.58;;;;;;;11.62;100.00;102719.44;2047049;28;20044;-73
2022/08/09 01:54:51;;;;;;;3.17;2.85;;;;;;;11.63;100.00;102720.38;2045757;28;31226;-74
2022/08/09 01:55:55;;;;;;;3.70;2.67;;;;;;;11.62;100.00;102721.25;2046933;28;31862;-73
2022/08/09 01:57:01;;;;;;;4.88;2.70;;;;;;;11.62;100.00;102722.13;2045511;28;20097;-74
2022/08/09 01:58:08;;;;;;;3.85;3.22;;;;;;;11.70;100.00;102722.16;2046973;28;32452;-73
2022/08/09 01:59:14;;;;;;;5.70;2.58;;;;;;;11.66;100.00;102728.41;2045248;28;20070;-73
2022/08/09 02:00:17;;;;;;;4.90;2.45;;;;;;;11.66;100.00;102728.41;2038080;29;20082;-73
2022/08/09 02:01:22;;;;;;;5.60;2.85;;;;;;;11.66;100.00;102725.72;2038431;29;28846;-74
2022/08/09 02:02:39;;;;;;;2.70;2.50;;;;;;;11.64;100.00;102724.81;2046803;28;22415;-73
2022/08/09 02:03:46;;;;;;;3.30;2.55;;;;;;;11.64;100.00;102730.19;2044455;28;20805;-75
2022/08/09 02:04:50;;;;;;;3.15;2.67;;;;;;;11.62;100.00;102722.13;2047137;28;20169;-75
2022/08/09 02:05:55;;;;;;;5.57;2.60;;;;;;;11.61;100.00;102724.81;2045131;28;32772;-73
2022/08/09 02:07:12;;;;;;;2.47;1.50;;;;;;;11.59;100.00;102718.56;2047181;28;22387;-72
2022/08/09 02:08:20;;;;;;;5.45;2.30;;;;;;;11.54;100.00;102725.69;2043729;28;40426;-73
2022/08/09 02:10:04;;;;;;;2.40;1.70;;;;;;;11.49;100.00;102724.81;2035560;29;20132;-73
2022/08/09 02:11:11;;;;;;;3.83;2.30;;;;;;;11.43;100.00;102721.22;2038653;29;33534;-73
2022/08/09 02:12:20;;;;;;;3.92;2.35;;;;;;;11.38;100.00;102722.13;2046741;28;26501;-73
2022/08/09 02:13:25;;;;;;;2.55;2.20;;;;;;;11.35;100.00;102724.78;2044999;28;32711;-73
2022/08/09 02:14:41;;;;;;;4.57;2.50;;;;;;;11.34;100.00;102721.22;2046727;28;28476;-73
2022/08/09 02:15:48;;;;;;;3.53;2.53;;;;;;;11.35;100.00;102727.47;2043647;28;26981;-73
2022/08/09 02:17:18;;;;;;;4.10;2.88;;;;;;;11.35;100.00;102728.34;2038858;29;29697;-73
2022/08/09 02:18:56;;;;;;;3.92;2.92;;;;;;;11.33;100.00;102719.41;2047521;28;20098;-74
2022/08/09 02:20:03;;;;;;;6.53;2.92;;;;;;;11.31;100.00;102723.00;2040560;29;20163;-73
2022/08/09 02:21:17;;;;;;;5.43;3.40;;;;;;;11.31;100.00;102717.63;2039359;29;29141;-74
2022/08/09 02:22:34;;;;;;;4.13;2.53;;;;;;;11.30;100.00;102722.06;2032548;29;28939;-73
2022/08/09 02:23:42;;;;;;;5.03;3.10;;;;;;;11.32;100.00;102722.06;2033288;29;24499;-75
2022/08/09 02:24:51;;;;;;;5.43;3.10;;;;;;;11.37;100.00;102723.00;2032837;29;20542;-72
2022/08/09 02:25:58;;;;;;;4.93;3.03;;;;;;;11.50;100.00;102726.59;2039957;29;34008;-73
2022/08/09 02:27:05;;;;;;;5.22;2.97;;;;;;;11.39;100.00;102732.81;2040400;29;20861;-73
2022/08/09 02:28:27;;;;;;;3.70;2.38;;;;;;;11.35;100.00;102725.66;2047820;28;29770;-74
2022/08/09 02:29:37;;;;;;;4.28;2.58;;;;;;;11.35;100.00;102722.97;2036453;29;37968;-74
2022/08/09 02:31:11;;;;;;;4.80;2.85;;;;;;;11.35;100.00;102727.47;2043086;28;20084;-73
2022/08/09 02:32:17;;;;;;;4.78;2.10;;;;;;;11.30;100.00;102730.13;2037360;28;32229;-73
2022/08/09 02:33:27;;;;;;;2.85;2.63;;;;;;;11.29;100.00;102741.75;2040008;29;20107;-73
2022/08/09 02:34:47;;;;;;;5.30;2.80;;;;;;;11.25;100.00;102735.47;2047853;28;27015;-73
2022/08/09 02:35:58;;;;;;;4.93;2.38;;;;;;;11.24;100.00;102738.16;2044383;28;20876;-74
2022/08/09 02:37:08;;;;;;;;;;;;;;;11.20;100.00;102737.25;2047900;28;31907;-74
2022/08/09 02:38:16;;;;;;;3.78;2.20;;;;;;;11.18;100.00;102724.72;2044764;28;31029;-74
2022/08/09 02:39:37;;;;;;;3.92;2.72;;;;;;;11.20;100.00;102731.00;2039804;29;28924;-72
2022/08/09 02:40:42;;;;;;;4.40;2.83;;;;;;;11.18;100.00;102732.75;2036767;29;25565;-73
2022/08/09 02:41:57;;;;;;;6.07;2.65;;;;;;;11.17;100.00;102734.53;2039420;28;38493;-73
2022/08/09 02:43:02;;;;;;;5.55;2.40;;;;;;;11.18;100.00;102730.06;2039510;29;27224;-74
2022/08/09 02:44:09;;;;;;;6.10;3.30;;;;;;;11.15;100.00;102730.09;2048116;28;20971;-73
2022/08/09 02:45:23;;;;;;;4.35;2.25;;;;;;;11.14;100.00;102728.28;2045751;28;28641;-74
2022/08/09 02:46:30;;;;;;;4.05;2.10;;;;;;;11.12;100.00;102732.75;2047833;28;35877;-73
2022/08/09 02:47:33;;;;;;;3.10;2.25;;;;;;;11.07;100.00;102724.66;2037910;29;21834;-74
2022/08/09 02:48:50;;;;;;;4.63;2.80;;;;;;;11.08;100.00;102727.38;2042189;28;35604;-74
2022/08/09 02:50:12;;;;;;;2.97;2.50;;;;;;;11.06;100.00;102726.47;2044639;28;31255;-75
2022/08/09 02:51:19;;;;;;;3.92;2.20;;;;;;;11.05;100.00;102730.06;2036066;29;33430;-74
2022/08/09 02:52:24;;;;;;;4.18;2.65;;;;;;;11.04;100.00;102722.00;2032614;29;31112;-74
2022/08/09 02:53:35;;;;;;;3.55;2.80;;;;;;;11.02;100.00;102723.78;2039519;29;33087;-74
2022/08/09 02:54:38;;;;;;;2.58;2.10;;;;;;;11.01;100.00;102725.56;2039822;28;28501;-74
2022/08/09 02:55:55;;;;;;;2.58;2.38;;;;;;;10.97;100.00;102729.13;2047639;28;22374;-73
2022/08/09 02:57:01;;;;;;;2.78;2.08;;;;;;;10.93;100.00;102723.72;2046089;28;23633;-73
2022/08/09 02:58:19;;;;;;;3.65;2.55;;;;;;;10.90;100.00;102724.63;2048378;28;20119;-74
2022/08/09 02:59:35;;;;;;;4.45;2.75;;;;;;;10.92;100.00;102733.56;2043148;28;28715;-73
2022/08/09 03:00:42;;;;;;;3.63;2.45;;;;;;;10.87;100.00;102738.91;2046655;28;35656;-73
2022/08/09 03:01:49;;;;;;;3.78;2.65;;;;;;;10.88;100.00;102735.31;2045467;28;28828;-73
2022/08/09 03:03:07;;;;;;;5.20;2.90;;;;;;;10.88;100.00;102724.59;2036430;29;34441;-73
2022/08/09 03:04:13;;;;;;;3.97;2.80;;;;;;;10.89;100.00;102725.50;2048077;28;20566;-73
2022/08/09 03:05:21;;;;;;;;;;;;;;;10.87;100.00;102724.59;2045928;28;29518;-73
2022/08/09 03:06:27;;;;;;;5.10;2.90;;;;;;;10.88;100.00;102723.72;2032483;29;21350;-73
2022/08/09 03:07:30;;;;;;;7.72;2.92;;;;;;;10.91;100.00;102729.09;2039993;29;22897;-73
2022/08/09 03:08:34;;;;;;;4.07;2.80;;;;;;;10.89;100.00;102729.09;2039637;29;26831;-73
2022/08/09 03:09:38;;;;;;;6.43;3.38;;;;;;;10.93;100.00;102724.66;2047980;28;20040;-73
2022/08/09 03:10:48;;;;;;;3.30;3.00;;;;;;;10.90;100.00;102721.94;2037951;29;35430;-73
2022/08/09 03:11:52;;;;;;;4.13;2.50;;;;;;;10.89;100.00;102722.81;2041175;28;36795;-73
2022/08/09 03:13:08;;;;;;;3.13;2.65;;;;;;;10.87;100.00;102721.91;2045213;28;30383;-73
2022/08/09 03:14:12;;;;;;;4.68;2.97;;;;;;;10.85;100.00;102734.41;2039857;29;24574;-72
2022/08/09 03:15:15;;;;;;;2.58;2.35;;;;;;;10.83;100.00;102728.16;2031942;29;25067;-73
2022/08/09 03:16:20;;;;;;;4.93;2.45;;;;;;;10.82;100.00;102732.63;2039582;28;25987;-75
2022/08/09 03:17:24;;;;;;;4.10;3.25;;;;;;;10.82;100.00;102739.75;2046734;28;29569;-74
2022/08/09 03:18:28;;;;;;;4.88;2.75;;;;;;;10.79;100.00;102737.06;2047894;28;20163;-74
2022/08/09 03:19:34;;;;;;;3.30;3.00;;;;;;;10.77;100.00;102733.50;2047034;28;26731;-75
2022/08/09 03:20:55;;;;;;;4.72;3.10;;;;;;;10.76;100.00;102737.06;2047832;28;20036;-74
2022/08/09 03:22:00;;;;;;;5.72;3.17;;;;;;;10.73;100.00;102732.59;2044777;28;21012;-75
2022/08/09 03:23:04;;;;;;;3.08;2.72;;;;;;;10.71;100.00;102731.66;2047547;28;26877;-75
2022/08/09 03:24:17;;;;;;;4.35;2.85;;;;;;;10.68;100.00;102732.56;2045646;28;25160;-74
2022/08/09 03:25:29;;;;;;;4.88;3.25;;;;;;;10.67;100.00;102733.41;2039904;29;27196;-75
2022/08/09 03:26:52;;;;;;;4.72;3.17;;;;;;;10.67;100.00;102733.41;2039963;28;20040;-72
2022/08/09 03:27:55;;;;;;;3.92;3.17;;;;;;;10.71;100.00;102726.31;2047354;28;38089;-74
2022/08/09 03:29:00;;;;;;;4.95;2.95;;;;;;;10.70;100.00;102732.56;2046876;28;32385;-72
2022/08/09 03:30:03;;;;;;;5.45;3.47;;;;;;;10.67;100.00;102730.75;2047704;28;21008;-73
2022/08/09 03:31:07;;;;;;;3.95;3.40;;;;;;;10.66;100.00;102731.66;2046486;28;20836;-75
2022/08/09 03:32:11;;;;;;;5.03;2.80;;;;;;;10.66;100.00;102739.69;2047744;28;32135;-73
2022/08/09 03:33:14;;;;;;;4.80;2.88;;;;;;;10.63;100.00;102736.09;2045921;28;21107;-74
2022/08/09 03:34:18;;;;;;;5.05;3.17;;;;;;;10.68;100.00;102737.03;2040384;28;20220;-74
2022/08/09 03:35:20;;;;;;;4.32;3.60;;;;;;;10.64;100.00;102727.16;2039324;29;20783;-74
2022/08/09 03:36:25;;;;;;;5.78;3.47;;;;;;;10.62;100.00;102724.50;2032258;29;27521;-73
2022/08/09 03:37:28;;;;;;;4.38;3.10;;;;;;;10.63;100.00;102723.59;2039214;29;31367;-73
2022/08/09 03:38:50;;;;;;;6.55;3.40;;;;;;;10.63;100.00;102725.38;2037584;29;20045;-74
2022/08/09 03:39:52;;;;;;;5.53;3.50;;;;;;;10.77;100.00;102722.78;2031771;29;32065;-74
2022/08/09 03:40:56;;;;;;;5.20;3.60;;;;;;;10.73;100.00;102729.91;2039386;28;33694;-74
2022/08/09 03:41:58;;;;;;;3.53;3.03;;;;;;;10.77;100.00;102722.78;2038980;28;34244;-74
2022/08/09 03:43:09;;;;;;;5.13;3.67;;;;;;;10.82;100.00;102723.69;2038410;29;20044;-74
2022/08/09 03:44:12;;;;;;;6.43;3.33;;;;;;;10.77;100.00;102723.66;2032519;29;27405;-73
2022/08/09 03:45:19;;;;;;;3.38;2.95;;;;;;;10.73;100.00;102724.56;2032598;29;20052;-74
2022/08/09 03:46:41;;;;;;;3.15;2.85;;;;;;;10.71;100.00;102728.97;2040301;29;20080;-74
2022/08/09 03:47:45;;;;;;;3.83;2.90;;;;;;;10.68;100.00;102724.50;2036072;29;20791;-73
2022/08/09 03:48:53;;;;;;;3.50;2.05;;;;;;;10.67;100.00;102727.19;2032904;29;20123;-73
2022/08/09 03:49:57;;;;;;;4.47;2.75;;;;;;;10.58;100.00;102724.44;2039232;29;33269;-74
2022/08/09 03:51:00;;;;;;;5.10;2.10;;;;;;;10.54;100.00;102723.53;2039687;29;20171;-74
2022/08/09 03:52:04;;;;;;;3.17;2.90;;;;;;;10.49;100.00;102727.97;2047327;28;30162;-74
2022/08/09 03:53:08;;;;;;;4.88;3.17;;;;;;;10.47;100.00;102719.03;2046911;28;29968;-73
2022/08/09 03:54:13;;;;;;;5.22;3.75;;;;;;;10.48;100.00;102720.81;2047496;28;20040;-73
2022/08/09 03:55:18;;;;;;;4.15;3.13;;;;;;;10.48;100.00;102720.81;2046390;28;24442;-73
2022/08/09 03:56:22;;;;;;;4.55;3.60;;;;;;;10.49;100.00;102718.16;2047616;28;21020;-73
2022/08/09 03:57:24;;;;;;;6.25;3.70;;;;;;;10.47;100.00;102719.91;2045629;28;29809;-74
2022/08/09 03:58:26;;;;;;;5.18;3.60;;;;;;;10.48;100.00;102718.13;2039056;29;35357;-73
2022/08/09 03:59:30;;;;;;;5.22;3.35;;;;;;;10.49;100.00;102718.16;2038887;29;34029;-74
2022/08/09 04:00:45;;;;;;;5.75;3.85;;;;;;;10.50;100.00;102719.06;2031794;29;33789;-74
2022/08/09 04:01:49;;;;;;;4.88;3.53;;;;;;;10.52;100.00;102719.06;2039313;28;25178;-73
2022/08/09 04:02:53;;;;;;;6.05;3.80;;;;;;;10.52;100.00;102721.75;2038855;29;24194;-74
2022/08/09 04:03:59;;;;;;;4.57;3.47;;;;;;;10.53;100.00;102723.53;2032203;29;30867;-74
2022/08/09 04:05:12;;;;;;;5.68;3.90;;;;;;;10.49;100.00;102720.81;2039766;29;27783;-74
2022/08/09 04:06:15;;;;;;;7.20;4.43;;;;;;;10.50;100.00;102719.94;2047188;28;29813;-74
2022/08/09 04:07:17;;;;;;;5.40;3.88;;;;;;;10.52;100.00;102729.78;2047534;28;25480;-75
2022/08/09 04:08:18;;;;;;;7.75;4.10;;;;;;;10.53;100.00;102720.84;2038866;28;36059;-74
2022/08/09 04:09:20;;;;;;;6.85;4.15;;;;;;;10.54;100.00;102720.88;2038774;29;37665;-74
2022/08/09 04:10:42;;;;;;;6.22;4.43;;;;;;;10.55;100.00;102725.34;2032689;29;20055;-73
2022/08/09 04:11:49;;;;;;;5.38;4.38;;;;;;;10.60;100.00;102714.63;2032349;29;20887;-74
2022/08/09 04:12:53;;;;;;;6.15;3.70;;;;;;;10.61;100.00;102719.13;2032387;29;20388;-75
2022/08/09 04:13:57;;;;;;;7.03;4.30;;;;;;;10.60;100.00;102715.53;2039501;29;26075;-75
2022/08/09 04:15:22;;;;;;;4.75;3.63;;;;;;;10.63;100.00;102712.88;2037158;29;20048;-73
2022/08/09 04:16:30;;;;;;;6.85;4.00;;;;;;;10.66;100.00;102720.94;2039925;29;24382;-75
2022/08/09 04:17:32;;;;;;;7.65;4.00;;;;;;;10.67;100.00;102722.72;2038371;29;24946;-75
2022/08/09 04:18:34;;;;;;;4.43;3.90;;;;;;;10.67;100.00;102725.38;2039227;29;26379;-75
2022/08/09 04:19:35;;;;;;;4.82;3.95;;;;;;;10.69;100.00;102728.06;2039464;29;23711;-75
2022/08/09 04:20:47;;;;;;;8.00;4.05;;;;;;;10.73;100.00;102720.94;2032151;29;25931;-75
2022/08/09 04:21:49;;;;;;;5.10;3.40;;;;;;;10.73;100.00;102724.56;2032403;29;20826;-74
2022/08/09 04:22:51;;;;;;;4.47;3.70;;;;;;;10.74;100.00;102734.38;2039677;29;21375;-74
2022/08/09 04:23:55;;;;;;;4.20;3.38;;;;;;;10.72;100.00;102724.53;2039240;29;30863;-74
2022/08/09 04:25:00;;;;;;;7.03;3.75;;;;;;;10.74;100.00;102730.81;2038927;29;20055;-74
2022/08/09 04:26:04;;;;;;;5.70;3.53;;;;;;;10.76;100.00;102726.34;2047196;28;23913;-74
2022/08/09 04:27:08;;;;;;;6.72;4.45;;;;;;;10.78;100.00;102730.81;2047479;28;20040;-73
2022/08/09 04:28:10;;;;;;;6.85;4.50;;;;;;;10.82;100.00;102731.72;2031840;29;25818;-74
2022/08/09 04:29:15;;;;;;;6.35;4.47;;;;;;;10.91;100.00;102729.09;2032252;29;20910;-73
2022/08/09 04:30:19;;;;;;;7.38;4.20;;;;;;;11.10;100.00;102721.13;2032015;28;29428;-74
2022/08/09 04:31:21;;;;;;;5.80;5.15;;;;;;;11.50;100.00;102726.59;2031736;29;25621;-74
2022/08/09 04:32:26;;;;;;;6.00;4.80;;;;;;;11.94;100.00;102729.34;2047728;28;20158;-74
2022/08/09 04:33:32;;;;;;;5.97;4.90;;;;;;;12.48;100.00;102729.31;2045762;28;25741;-74
2022/08/09 04:34:34;;;;;;;5.00;4.15;;;;;;;12.97;100.00;102731.84;2047080;28;30138;-74
2022/08/09 04:35:39;;;;;;;4.28;3.88;;;;;;;13.49;100.00;102729.81;2046719;28;36054;-75
2022/08/09 04:36:41;;;;;;;3.97;3.38;;;;;;;13.98;100.00;102725.84;2047489;28;28614;-74
2022/08/09 04:37:51;;;;;;;3.67;2.45;;;;;;;14.55;100.00;102728.00;2044592;28;24897;-74
2022/08/09 04:39:00;;;;;;;5.50;3.78;;;;;;;14.99;96.92;102721.25;2047539;28;28040;-75
2022/08/09 04:40:05;;;;;;;3.45;2.22;;;;;;;15.57;94.12;102722.22;2037825;29;22790;-74
2022/08/09 04:41:07;;;;;;;2.75;1.83;;;;;;;16.06;90.12;102724.19;2031682;29;26383;-74
2022/08/09 04:42:10;;;;;;;2.72;1.60;;;;;;;16.49;85.72;102714.38;2030538;29;36004;-74
2022/08/09 04:43:14;;;;;;;3.97;2.17;;;;;;;16.94;81.07;102726.13;2032130;29;28691;-73
2022/08/09 04:44:17;;;;;;;4.13;2.00;;;;;;;17.16;77.76;102726.56;2031743;29;32428;-74
2022/08/09 04:45:18;;;;;;;5.03;2.10;;;;;;;17.36;76.46;102719.81;2031755;28;26638;-73
2022/08/09 04:46:21;;;;;;;2.45;1.65;;;;;;;17.70;75.76;102717.19;2031498;29;33368;-74
2022/08/09 04:47:38;;;;;;;6.10;1.95;;;;;;;17.90;73.03;102714.00;2032427;29;20029;-73
2022/08/09 04:48:46;;;;;;;1.80;1.35;;;;;;;18.34;73.69;102719.22;2032532;29;20045;-74
2022/08/09 04:49:52;;;;;;;2.85;1.40;;;;;;;18.48;71.15;102717.03;2032023;29;24202;-74
2022/08/09 04:50:55;;;;;;;3.78;1.50;;;;;;;18.70;68.94;102721.84;2039386;29;22758;-74
2022/08/09 04:51:58;;;;;;;3.67;1.25;;;;;;;19.08;69.16;102717.13;2038478;28;23638;-74
2022/08/09 04:53:06;;;;;;;3.50;1.55;;;;;;;19.15;66.07;102716.00;2046430;28;35571;-73
2022/08/09 04:54:12;;;;;;;1.80;1.10;;;;;;;19.40;65.20;102718.84;2044539;28;20091;-74
2022/08/09 04:55:16;;;;;;;1.83;1.23;;;;;;;19.50;64.46;102718.56;2031643;29;38437;-74
2022/08/09 04:56:19;;;;;;;2.38;1.27;;;;;;;19.71;65.42;102722.41;2032254;29;20964;-74
2022/08/09 04:57:21;;;;;;;2.33;1.25;;;;;;;20.03;63.34;102718.66;2032118;29;26044;-73
2022/08/09 04:58:27;;;;;;;4.13;1.67;;;;;;;20.09;62.81;102723.84;2047286;28;20035;-73
2022/08/09 04:59:30;;;;;;;2.17;1.95;;;;;;;19.93;61.14;102723.50;2038185;29;30737;-75
2022/08/09 05:00:33;;;;;;;2.55;1.48;;;;;;;20.25;61.99;102729.66;2031603;29;20045;-73
2022/08/09 05:01:36;;;;;;;2.63;1.63;;;;;;;20.43;60.58;102721.78;2039590;28;20040;-74
2022/08/09 05:02:38;;;;;;;1.98;1.35;;;;;;;20.68;62.51;102727.25;2038512;29;30629;-73
2022/08/09 05:03:40;;;;;;;5.35;1.50;;;;;;;20.32;60.55;102733.06;2039171;29;31427;-74
2022/08/09 05:04:44;;;;;;;6.85;1.33;;;;;;;20.90;60.78;102739.09;2031288;29;38728;-74
2022/08/09 05:05:47;;;;;;;1.83;1.38;;;;;;;20.98;58.91;102737.00;2039465;29;24633;-73
2022/08/09 05:06:52;;;;;;;3.90;1.77;;;;;;;21.17;57.93;102730.81;2046569;28;29660;-74
2022/08/09 05:07:55;;;;;;;3.33;1.40;;;;;;;21.19;58.37;102731.66;2047228;28;20054;-74
2022/08/09 05:08:57;;;;;;;1.52;0.98;;;;;;;20.91;58.13;102740.91;2038985;29;20965;-74
2022/08/09 05:10:01;;;;;;;3.72;1.40;;;;;;;21.55;57.29;102736.63;2031400;29;39024;-74
2022/08/09 05:11:04;;;;;;;2.83;1.10;;;;;;;21.81;57.30;102726.50;2031579;29;20040;-74
2022/08/09 05:12:07;;;;;;;3.55;1.48;;;;;;;21.92;56.30;102735.97;2031947;29;20921;-74
2022/08/09 05:13:09;;;;;;;5.07;1.17;;;;;;;22.22;56.20;102742.94;2031562;29;34299;-74
2022/08/09 05:14:11;;;;;;;3.35;1.40;;;;;;;22.75;55.16;102742.41;2047701;28;20078;-74
2022/08/09 05:15:13;;;;;;;2.10;1.23;;;;;;;22.79;51.01;102738.59;2046241;28;33056;-75
2022/08/09 05:16:25;;;;;;;2.22;1.20;;;;;;;23.33;53.25;102737.94;2031759;29;31763;-74
2022/08/09 05:17:29;;;;;;;2.15;1.13;;;;;;;24.06;51.91;102736.13;2046687;28;29058;-74